createdAt,value
2023-09-29T00:02:15.039Z,99358.21
2023-09-29T00:07:17.482Z,99353.64
2023-09-29T00:12:20.209Z,99353.06
2023-09-29T00:17:22.126Z,99352.43
2023-09-29T00:22:24.085Z,99352.53
2023-09-29T00:27:26.164Z,99354.57
2023-09-29T00:32:28.125Z,99357.92
2023-09-29T00:37:30.520Z,99359.55
2023-09-29T00:42:33.204Z,99362.61
2023-09-29T00:47:37.525Z,99361.20
2023-09-29T00:52:41.886Z,99361.56
2023-09-29T00:57:49.275Z,99358.95
2023-09-29T01:02:51.545Z,99359.08
2023-09-29T01:07:53.833Z,99358.09
2023-09-29T01:12:55.785Z,99359.64
2023-09-29T01:17:57.851Z,99358.41
2023-09-29T01:23:02.396Z,99358.38
2023-09-29T01:28:06.656Z,99359.15
2023-09-29T01:33:09.615Z,99355.17
2023-09-29T01:38:11.548Z,99352.27
2023-09-29T01:43:13.403Z,99350.52
2023-09-29T01:48:15.393Z,99351.69
2023-09-29T01:53:18.049Z,99352.88
2023-09-29T01:58:21.456Z,99354.52
2023-09-29T02:03:23.718Z,99354.15
2023-09-29T02:08:27.038Z,99352.30
2023-09-29T02:13:28.949Z,99353.89
2023-09-29T02:18:31.102Z,99355.70
2023-09-29T02:23:34.971Z,99355.43
2023-09-29T02:28:37.534Z,99356.87
2023-09-29T02:33:41.975Z,99352.04
2023-09-29T02:38:43.901Z,99348.23
2023-09-29T02:43:45.813Z,99341.27
2023-09-29T02:48:48.273Z,99339.30
2023-09-29T02:53:51.606Z,99333.42
2023-09-29T02:58:56.003Z,99326.58
2023-09-29T03:04:00.239Z,99323.09
2023-09-29T03:09:03.021Z,99320.20
2023-09-29T03:14:05.627Z,99315.35
2023-09-29T03:19:09.610Z,99314.59
2023-09-29T03:24:11.546Z,99307.52
2023-09-29T03:29:13.455Z,99305.73
2023-09-29T03:34:15.754Z,99305.00
2023-09-29T03:39:19.669Z,99306.80
2023-09-29T03:44:22.575Z,99306.55
2023-09-29T03:49:24.677Z,99302.96
2023-09-29T03:54:27.038Z,99306.23
2023-09-29T03:59:29.036Z,99302.14
2023-09-29T04:04:32.172Z,99298.92
2023-09-29T04:09:34.439Z,99296.55
2023-09-29T04:14:36.409Z,99294.50
2023-09-29T04:19:39.664Z,99294.42
2023-09-29T04:24:41.571Z,99299.54
2023-09-29T04:29:43.505Z,99303.27
2023-09-29T04:34:46.447Z,99300.03
2023-09-29T04:39:48.428Z,99300.23
2023-09-29T04:44:50.323Z,99305.77
2023-09-29T04:49:52.250Z,99306.45
2023-09-29T04:54:54.592Z,99307.29
2023-09-29T04:59:56.616Z,99309.89
2023-09-29T05:04:58.501Z,99312.69
2023-09-29T05:10:00.639Z,99314.42
2023-09-29T05:15:03.282Z,99312.15
2023-09-29T05:20:06.626Z,99313.18
2023-09-29T05:25:09.745Z,99313.35
2023-09-29T05:30:13.607Z,99313.45
2023-09-29T05:35:15.560Z,99317.38
2023-09-29T05:40:17.690Z,99318.07
2023-09-29T05:45:21.242Z,99317.52
2023-09-29T05:50:23.150Z,99316.31
2023-09-29T05:55:25.320Z,99320.95
2023-09-29T06:00:27.731Z,99326.96
2023-09-29T06:05:31.037Z,99331.81
2023-09-29T06:10:33.176Z,99334.42
2023-09-29T06:15:35.040Z,99329.83
2023-09-29T06:20:36.927Z,99333.31
2023-09-29T06:25:38.901Z,99338.42
2023-09-29T06:30:40.907Z,99341.24
2023-09-29T06:35:43.339Z,99340.41
2023-09-29T06:40:45.395Z,99342.48
2023-09-29T06:50:52.455Z,99347.76
2023-09-29T06:55:55.495Z,99353.55
2023-09-29T07:01:02.074Z,99357.55
2023-09-29T07:06:04.674Z,99363.35
2023-09-29T07:11:06.736Z,99361.04
2023-09-29T07:16:09.110Z,99361.27
2023-09-29T07:21:11.009Z,99360.08
2023-09-29T07:26:13.373Z,99360.52
2023-09-29T07:31:15.330Z,99364.15
2023-09-29T07:36:17.523Z,99362.35
2023-09-29T07:41:19.512Z,99362.33
2023-09-29T07:46:21.587Z,99357.27
2023-09-29T07:51:26.198Z,99358.84
2023-09-29T07:56:28.221Z,99360.55
2023-09-29T08:01:30.490Z,99360.17
2023-09-29T08:06:32.306Z,99355.99
2023-09-29T08:11:34.668Z,99354.35
2023-09-29T08:16:37.489Z,99354.09
2023-09-29T08:21:40.384Z,99361.15
2023-09-29T08:26:42.879Z,99362.20
2023-09-29T08:31:45.150Z,99361.63
2023-09-29T08:36:47.255Z,99361.96
2023-09-29T08:41:57.405Z,99362.52
2023-09-29T08:47:02.499Z,99359.11
2023-09-29T08:52:05.685Z,99358.94
2023-09-29T08:57:08.976Z,99362.20
2023-09-29T09:02:11.257Z,99358.87
2023-09-29T09:07:14.247Z,99359.70
2023-09-29T09:12:18.409Z,99360.86
2023-09-29T09:17:20.574Z,99364.29
2023-09-29T09:22:38.708Z,99360.43
2023-09-29T09:27:42.729Z,99360.17
2023-09-29T09:32:44.949Z,99358.11
2023-09-29T09:37:52.578Z,99358.33
2023-09-29T09:42:55.320Z,99357.73
2023-09-29T09:48:01.036Z,99351.05
2023-09-29T09:53:09.213Z,99353.04
2023-09-29T09:58:14.644Z,99349.17
2023-09-29T10:03:18.242Z,99348.26
2023-09-29T10:08:32.439Z,99342.81
2023-09-29T10:13:39.371Z,99345.23
2023-09-29T10:18:42.039Z,99343.69
2023-09-29T10:23:51.867Z,99339.92
2023-09-29T10:29:02.299Z,99336.55
2023-09-29T10:34:04.470Z,99334.64
2023-09-29T10:39:06.491Z,99333.63
2023-09-29T10:44:08.652Z,99333.27
2023-09-29T10:49:11.323Z,99323.61
2023-09-29T10:54:13.582Z,99318.49
2023-09-29T10:59:15.444Z,99312.22
2023-09-29T11:04:17.589Z,99308.67
2023-09-29T11:09:29.829Z,99302.52
2023-09-29T11:14:39.830Z,99297.77
2023-09-29T11:19:55.781Z,99291.95
2023-09-29T11:24:58.326Z,99285.73
2023-09-29T11:30:02.332Z,99281.86
2023-09-29T11:35:04.410Z,99276.06
2023-09-29T11:40:12.803Z,99271.91
2023-09-29T11:45:14.945Z,99265.34
2023-09-29T11:50:16.926Z,99263.08
2023-09-29T11:55:18.890Z,99254.48
2023-09-29T12:00:20.752Z,99246.27
2023-09-29T12:05:22.805Z,99241.95
2023-09-29T12:10:24.721Z,99230.60
2023-09-29T12:15:27.188Z,99223.48
2023-09-29T12:20:29.821Z,99227.90
2023-09-29T12:25:32.510Z,99218.44
2023-09-29T12:30:34.737Z,99211.59
2023-09-29T12:35:36.629Z,99205.10
2023-09-29T12:40:38.572Z,99200.77
2023-09-29T12:45:40.391Z,99195.77
2023-09-29T12:50:42.636Z,99190.13
2023-09-29T12:55:44.677Z,99186.44
2023-09-29T13:00:46.740Z,99184.77
2023-09-29T13:05:49.162Z,99180.17
2023-09-29T13:10:51.382Z,99170.86
2023-09-29T13:15:53.846Z,99169.94
2023-09-29T13:20:56.479Z,99163.29
2023-09-29T13:25:58.565Z,99152.63
2023-09-29T13:31:02.786Z,99152.12
2023-09-29T13:36:05.172Z,99148.17
2023-09-29T13:41:07.337Z,99148.61
2023-09-29T13:46:09.689Z,99142.11
2023-09-29T13:51:12.036Z,99139.63
2023-09-29T13:56:14.793Z,99140.66
2023-09-29T14:01:22.915Z,99131.14
2023-09-29T14:06:25.136Z,99126.98
2023-09-29T14:11:27.451Z,99126.22
2023-09-29T14:16:30.124Z,99123.45
2023-09-29T14:21:32.119Z,99121.27
2023-09-29T14:26:34.659Z,99116.79
2023-09-29T14:31:36.656Z,99117.05
2023-09-29T14:36:38.498Z,99115.47
2023-09-29T14:41:40.391Z,99109.80
2023-09-29T14:46:42.821Z,99115.55
2023-09-29T14:51:44.639Z,99120.04
2023-09-29T14:56:46.469Z,99121.23
2023-09-29T15:01:48.936Z,99124.02
2023-09-29T15:06:50.878Z,99123.48
2023-09-29T15:11:52.869Z,99116.08
2023-09-29T15:16:54.838Z,99112.95
2023-09-29T15:21:57.448Z,99113.16
2023-09-29T15:27:05.133Z,99112.61
2023-09-29T15:32:20.707Z,99112.36
2023-09-29T15:37:22.650Z,99114.02
2023-09-29T15:42:25.351Z,99118.28
2023-09-29T15:47:27.405Z,99125.27
2023-09-29T15:52:29.378Z,99126.77
2023-09-29T15:57:31.542Z,99130.79
2023-09-29T16:02:33.400Z,99140.71
2023-09-29T16:07:35.895Z,99137.98
2023-09-29T16:12:37.747Z,99138.23
2023-09-29T16:17:40.114Z,99142.78
2023-09-29T16:22:41.969Z,99146.35
2023-09-29T16:27:43.890Z,99142.91
2023-09-29T16:32:45.855Z,99145.28
2023-09-29T16:37:47.756Z,99148.20
2023-09-29T16:42:49.551Z,99146.84
2023-09-29T16:47:52.019Z,99147.66
2023-09-29T16:52:53.896Z,99151.42
2023-09-29T16:57:56.047Z,99147.42
2023-09-29T17:02:58.087Z,99149.27
2023-09-29T17:08:01.733Z,99149.40
2023-09-29T17:13:04.784Z,99145.17
2023-09-29T17:18:07.028Z,99141.96
2023-09-29T17:23:10.028Z,99143.70
2023-09-29T17:28:14.570Z,99145.75
2023-09-29T17:33:17.711Z,99143.11
2023-09-29T17:38:19.765Z,99148.33
2023-09-29T17:43:21.691Z,99150.46
2023-09-29T17:48:40.884Z,99146.68
2023-09-29T17:53:46.370Z,99145.23
2023-09-29T17:58:48.764Z,99147.56
2023-09-29T18:03:50.724Z,99149.11
2023-09-29T18:08:53.043Z,99149.48
2023-09-29T18:13:58.116Z,99148.26
2023-09-29T18:19:01.804Z,99147.33
2023-09-29T18:24:06.817Z,99144.80
2023-09-29T18:29:10.292Z,99147.88
2023-09-29T18:34:12.992Z,99148.45
2023-09-29T18:39:15.839Z,99148.16
2023-09-29T18:44:18.083Z,99143.02
2023-09-29T18:49:20.099Z,99144.23
2023-09-29T18:54:24.668Z,99143.63
2023-09-29T18:59:30.352Z,99140.36
2023-09-29T19:04:35.595Z,99140.64
2023-09-29T19:09:39.316Z,99140.25
2023-09-29T19:14:41.409Z,99134.95
2023-09-29T19:19:43.426Z,99130.09
2023-09-29T19:24:46.503Z,99127.92
2023-09-29T19:29:50.635Z,99123.37
2023-09-29T19:34:53.016Z,99127.84
2023-09-29T19:39:54.879Z,99129.57
2023-09-29T19:44:57.419Z,99134.20
2023-09-29T19:50:01.205Z,99131.23
2023-09-29T19:55:04.559Z,99129.39
2023-09-29T20:00:07.116Z,99129.45
2023-09-29T20:05:17.850Z,99132.66
2023-09-29T20:10:20.154Z,99131.62
2023-09-29T20:15:22.002Z,99131.56
2023-09-29T20:20:23.949Z,99129.39
2023-09-29T20:25:26.247Z,99131.05
2023-09-29T20:30:28.507Z,99127.76
2023-09-29T20:35:31.562Z,99126.58
2023-09-29T20:40:33.450Z,99127.83
2023-09-29T20:45:35.942Z,99127.81
2023-09-29T20:50:39.112Z,99129.74
2023-09-29T20:55:41.048Z,99134.18
2023-09-29T21:00:43.100Z,99135.44
2023-09-29T21:05:45.098Z,99136.81
2023-09-29T21:11:01.631Z,99132.58
2023-09-29T21:16:07.586Z,99133.64
2023-09-29T21:21:09.567Z,99130.27
2023-09-29T21:26:15.874Z,99126.88
2023-09-29T21:31:22.663Z,99125.65
2023-09-29T21:36:24.780Z,99127.73
2023-09-29T21:41:26.602Z,99125.70
2023-09-29T21:46:34.447Z,99129.41
2023-09-29T21:51:40.391Z,99128.00
2023-09-29T21:56:42.620Z,99130.62
2023-09-29T22:01:44.672Z,99127.11
2023-09-29T22:06:46.544Z,99120.20
2023-09-29T22:11:48.607Z,99115.59
2023-09-29T22:16:50.527Z,99108.69
2023-09-29T22:21:56.132Z,99108.05
2023-09-29T22:26:58.070Z,99102.29
2023-09-29T22:32:00.702Z,99099.74
2023-09-29T22:37:02.617Z,99098.02
2023-09-29T22:42:04.508Z,99096.53
2023-09-29T22:47:06.756Z,99099.20
2023-09-29T22:52:08.642Z,99098.17
2023-09-29T22:57:10.550Z,99097.55
2023-09-29T23:02:12.749Z,99095.23
2023-09-29T23:07:14.712Z,99097.64
2023-09-29T23:12:19.647Z,99097.17
2023-09-29T23:17:21.724Z,99096.10
2023-09-29T23:22:23.725Z,99095.08
2023-09-29T23:27:25.683Z,99091.31
2023-09-29T23:32:29.098Z,99090.27
2023-09-29T23:37:31.411Z,99093.23
2023-09-29T23:42:33.773Z,99088.70
2023-09-29T23:47:36.347Z,99090.95
2023-09-29T23:52:38.907Z,99090.98
2023-09-29T23:57:41.160Z,99095.64
